sensor_id;sensor_type;location;lat;lon;timestamp;pressure;altitude;pressure_sealevel;temperature
72236;BMP280;60146;52.498;13.462;2023-11-21T00:00:24;96980.88;;;9.84
72236;BMP280;60146;52.498;13.462;2023-11-21T00:02:49;96992.72;;;9.71
72236;BMP280;60146;52.498;13.462;2023-11-21T00:05:15;97010.22;;;9.64
72236;BMP280;60146;52.498;13.462;2023-11-21T00:07:41;97028.41;;;9.57
72236;BMP280;60146;52.498;13.462;2023-11-21T00:10:07;97031.41;;;9.55
72236;BMP280;60146;52.498;13.462;2023-11-21T00:12:37;97030.66;;;9.55
72236;BMP280;60146;52.498;13.462;2023-11-21T00:15:03;97029.44;;;9.49
72236;BMP280;60146;52.498;13.462;2023-11-21T00:17:30;97029.91;;;9.54
72236;BMP280;60146;52.498;13.462;2023-11-21T00:19:55;97044.38;;;9.49
72236;BMP280;60146;52.498;13.462;2023-11-21T00:22:21;97056.25;;;9.43
72236;BMP280;60146;52.498;13.462;2023-11-21T00:24:46;97061.06;;;9.37
72236;BMP280;60146;52.498;13.462;2023-11-21T00:27:13;97048.03;;;9.44
72236;BMP280;60146;52.498;13.462;2023-11-21T00:29:39;97062.09;;;9.33
72236;BMP280;60146;52.498;13.462;2023-11-21T00:32:05;97072.91;;;9.32
72236;BMP280;60146;52.498;13.462;2023-11-21T00:34:31;97070.28;;;9.32
72236;BMP280;60146;52.498;13.462;2023-11-21T00:36:57;97071.38;;;9.27
72236;BMP280;60146;52.498;13.462;2023-11-21T00:39:22;97082.50;;;9.24
72236;BMP280;60146;52.498;13.462;2023-11-21T00:41:48;97084.78;;;9.26
72236;BMP280;60146;52.498;13.462;2023-11-21T00:44:13;97087.44;;;9.29
72236;BMP280;60146;52.498;13.462;2023-11-21T00:46:39;97083.25;;;9.25
72236;BMP280;60146;52.498;13.462;2023-11-21T00:49:04;97089.94;;;9.19
72236;BMP280;60146;52.498;13.462;2023-11-21T00:51:30;97078.47;;;9.27
72236;BMP280;60146;52.498;13.462;2023-11-21T00:53:55;97082.44;;;9.17
72236;BMP280;60146;52.498;13.462;2023-11-21T00:56:21;97086.22;;;9.20
72236;BMP280;60146;52.498;13.462;2023-11-21T00:58:46;97080.94;;;9.16
72236;BMP280;60146;52.498;13.462;2023-11-21T01:01:15;97100.09;;;8.98
72236;BMP280;60146;52.498;13.462;2023-11-21T01:03:41;97113.53;;;9.00
72236;BMP280;60146;52.498;13.462;2023-11-21T01:06:06;97118.66;;;8.93
72236;BMP280;60146;52.498;13.462;2023-11-21T01:08:32;97112.03;;;8.99
72236;BMP280;60146;52.498;13.462;2023-11-21T01:10:57;97134.19;;;8.87
72236;BMP280;60146;52.498;13.462;2023-11-21T01:13:23;97130.91;;;8.90
72236;BMP280;60146;52.498;13.462;2023-11-21T01:15:48;97136.03;;;8.83
72236;BMP280;60146;52.498;13.462;2023-11-21T01:18:13;97160.75;;;8.67
72236;BMP280;60146;52.498;13.462;2023-11-21T01:20:39;97181.44;;;8.56
72236;BMP280;60146;52.498;13.462;2023-11-21T01:23:05;97200.28;;;8.47
72236;BMP280;60146;52.498;13.462;2023-11-21T01:25:30;97208.69;;;8.40
72236;BMP280;60146;52.498;13.462;2023-11-21T01:27:55;97212.50;;;8.43
72236;BMP280;60146;52.498;13.462;2023-11-21T01:30:21;97220.88;;;8.33
72236;BMP280;60146;52.498;13.462;2023-11-21T01:32:47;97227.34;;;8.39
72236;BMP280;60146;52.498;13.462;2023-11-21T01:35:12;97220.72;;;8.45
72236;BMP280;60146;52.498;13.462;2023-11-21T01:37:38;97215.63;;;8.51
72236;BMP280;60146;52.498;13.462;2023-11-21T01:40:04;97221.50;;;8.45
72236;BMP280;60146;52.498;13.462;2023-11-21T01:42:34;97233.38;;;8.43
72236;BMP280;60146;52.498;13.462;2023-11-21T01:45:00;97226.66;;;8.42
72236;BMP280;60146;52.498;13.462;2023-11-21T01:47:27;97212.09;;;8.63
72236;BMP280;60146;52.498;13.462;2023-11-21T01:49:52;97215.63;;;8.51
72236;BMP280;60146;52.498;13.462;2023-11-21T01:52:18;97224.22;;;8.52
72236;BMP280;60146;52.498;13.462;2023-11-21T01:54:44;97230.06;;;8.46
72236;BMP280;60146;52.498;13.462;2023-11-21T01:57:10;97228.00;;;8.54
72236;BMP280;60146;52.498;13.462;2023-11-21T01:59:36;97234.47;;;8.42
72236;BMP280;60146;52.498;13.462;2023-11-21T02:02:03;97241.47;;;8.38
72236;BMP280;60146;52.498;13.462;2023-11-21T02:04:31;97246.28;;;8.36
72236;BMP280;60146;52.498;13.462;2023-11-21T02:06:57;97252.25;;;8.36
72236;BMP280;60146;52.498;13.462;2023-11-21T02:09:27;97260.06;;;8.36
72236;BMP280;60146;52.498;13.462;2023-11-21T02:11:53;97262.63;;;8.33
72236;BMP280;60146;52.498;13.462;2023-11-21T02:14:19;97269.69;;;8.32
72236;BMP280;60146;52.498;13.462;2023-11-21T02:16:48;97277.09;;;8.30
72236;BMP280;60146;52.498;13.462;2023-11-21T02:19:17;97277.09;;;8.30
72236;BMP280;60146;52.498;13.462;2023-11-21T02:21:45;97293.41;;;8.28
72236;BMP280;60146;52.498;13.462;2023-11-21T02:24:10;97293.41;;;8.28
72236;BMP280;60146;52.498;13.462;2023-11-21T02:26:36;97296.78;;;8.28
72236;BMP280;60146;52.498;13.462;2023-11-21T02:29:01;97306.66;;;8.19
72236;BMP280;60146;52.498;13.462;2023-11-21T02:31:29;97306.47;;;8.28
72236;BMP280;60146;52.498;13.462;2023-11-21T02:33:55;97324.50;;;8.17
72236;BMP280;60146;52.498;13.462;2023-11-21T02:36:20;97308.72;;;8.29
72236;BMP280;60146;52.498;13.462;2023-11-21T02:38:47;97315.72;;;8.25
72236;BMP280;60146;52.498;13.462;2023-11-21T02:41:12;97325.84;;;8.11
72236;BMP280;60146;52.498;13.462;2023-11-21T02:43:38;97339.09;;;8.03
72236;BMP280;60146;52.498;13.462;2023-11-21T02:46:04;97335.03;;;8.06
72236;BMP280;60146;52.498;13.462;2023-11-21T02:48:29;97339.88;;;8.22
72236;BMP280;60146;52.498;13.462;2023-11-21T02:50:55;97358.25;;;8.10
72236;BMP280;60146;52.498;13.462;2023-11-21T02:53:21;97347.97;;;8.17
72236;BMP280;60146;52.498;13.462;2023-11-21T02:55:46;97350.16;;;8.15
72236;BMP280;60146;52.498;13.462;2023-11-21T02:58:11;97345.28;;;8.14
72236;BMP280;60146;52.498;13.462;2023-11-21T03:00:37;97367.34;;;8.01
72236;BMP280;60146;52.498;13.462;2023-11-21T03:03:02;97366.00;;;7.92
72236;BMP280;60146;52.498;13.462;2023-11-21T03:05:28;97354.44;;;7.89
72236;BMP280;60146;52.498;13.462;2023-11-21T03:07:54;97370.63;;;7.83
72236;BMP280;60146;52.498;13.462;2023-11-21T03:10:19;97363.25;;;7.85
72236;BMP280;60146;52.498;13.462;2023-11-21T03:12:44;97361.75;;;7.84
72236;BMP280;60146;52.498;13.462;2023-11-21T03:15:10;97373.53;;;7.78
72236;BMP280;60146;52.498;13.462;2023-11-21T03:17:35;97383.59;;;7.80
72236;BMP280;60146;52.498;13.462;2023-11-21T03:20:01;97378.22;;;7.88
72236;BMP280;60146;52.498;13.462;2023-11-21T03:22:28;97383.41;;;7.88
72236;BMP280;60146;52.498;13.462;2023-11-21T03:24:53;97391.06;;;7.81
72236;BMP280;60146;52.498;13.462;2023-11-21T03:27:18;97385.75;;;7.93
72236;BMP280;60146;52.498;13.462;2023-11-21T03:29:44;97392.66;;;8.01
72236;BMP280;60146;52.498;13.462;2023-11-21T03:32:10;97432.75;;;7.96
72236;BMP280;60146;52.498;13.462;2023-11-21T03:34:35;97449.88;;;7.82
72236;BMP280;60146;52.498;13.462;2023-11-21T03:37:01;97431.31;;;7.99
72236;BMP280;60146;52.498;13.462;2023-11-21T03:39:26;97446.75;;;7.92
72236;BMP280;60146;52.498;13.462;2023-11-21T03:41:51;97437.84;;;7.93
72236;BMP280;60146;52.498;13.462;2023-11-21T03:44:17;97455.22;;;7.86
72236;BMP280;60146;52.498;13.462;2023-11-21T03:46:43;97508.31;;;7.96
72236;BMP280;60146;52.498;13.462;2023-11-21T03:49:08;97557.09;;;7.96
72236;BMP280;60146;52.498;13.462;2023-11-21T03:51:33;97562.94;;;7.93
72236;BMP280;60146;52.498;13.462;2023-11-21T03:53:59;97561.69;;;7.87
72236;BMP280;60146;52.498;13.462;2023-11-21T03:56:24;97550.69;;;7.78
72236;BMP280;60146;52.498;13.462;2023-11-21T03:58:50;97530.94;;;7.77
72236;BMP280;60146;52.498;13.462;2023-11-21T04:01:22;97500.91;;;7.83
72236;BMP280;60146;52.498;13.462;2023-11-21T04:03:48;97526.81;;;7.76
72236;BMP280;60146;52.498;13.462;2023-11-21T04:06:14;97550.59;;;7.90
72236;BMP280;60146;52.498;13.462;2023-11-21T04:08:39;97596.25;;;7.84
72236;BMP280;60146;52.498;13.462;2023-11-21T04:11:04;97611.25;;;7.75
72236;BMP280;60146;52.498;13.462;2023-11-21T04:13:30;97612.31;;;7.74
72236;BMP280;60146;52.498;13.462;2023-11-21T04:15:56;97610.50;;;7.75
72236;BMP280;60146;52.498;13.462;2023-11-21T04:18:21;97641.06;;;7.89
72236;BMP280;60146;52.498;13.462;2023-11-21T04:20:48;97693.28;;;7.81
72236;BMP280;60146;52.498;13.462;2023-11-21T04:23:13;97663.47;;;7.79
72236;BMP280;60146;52.498;13.462;2023-11-21T04:25:40;97649.53;;;7.87
72236;BMP280;60146;52.498;13.462;2023-11-21T04:28:05;97700.38;;;7.81
72236;BMP280;60146;52.498;13.462;2023-11-21T04:30:30;97725.22;;;7.90
72236;BMP280;60146;52.498;13.462;2023-11-21T04:32:56;97787.50;;;7.83
72236;BMP280;60146;52.498;13.462;2023-11-21T04:35:22;97807.53;;;7.79
72236;BMP280;60146;52.498;13.462;2023-11-21T04:37:47;97835.88;;;7.81
72236;BMP280;60146;52.498;13.462;2023-11-21T04:40:12;97814.69;;;7.70
72236;BMP280;60146;52.498;13.462;2023-11-21T04:42:38;97783.22;;;7.75
72236;BMP280;60146;52.498;13.462;2023-11-21T04:45:05;97820.00;;;7.86
72236;BMP280;60146;52.498;13.462;2023-11-21T04:47:33;97838.47;;;7.69
72236;BMP280;60146;52.498;13.462;2023-11-21T04:49:59;97835.09;;;7.68
72236;BMP280;60146;52.498;13.462;2023-11-21T04:52:24;97843.59;;;7.66
72236;BMP280;60146;52.498;13.462;2023-11-21T04:54:49;97839.88;;;7.66
72236;BMP280;60146;52.498;13.462;2023-11-21T04:57:15;97842.69;;;7.62
72236;BMP280;60146;52.498;13.462;2023-11-21T04:59:43;97827.06;;;7.62
72236;BMP280;60146;52.498;13.462;2023-11-21T05:02:08;97815.09;;;7.72
72236;BMP280;60146;52.498;13.462;2023-11-21T05:04:33;97848.13;;;7.68
72236;BMP280;60146;52.498;13.462;2023-11-21T05:06:59;97896.97;;;7.60
72236;BMP280;60146;52.498;13.462;2023-11-21T05:09:25;97875.88;;;7.53
72236;BMP280;60146;52.498;13.462;2023-11-21T05:11:51;97859.66;;;7.67
72236;BMP280;60146;52.498;13.462;2023-11-21T05:14:18;97888.59;;;7.54
72236;BMP280;60146;52.498;13.462;2023-11-21T05:16:44;97882.00;;;7.57
72236;BMP280;60146;52.498;13.462;2023-11-21T05:19:09;97905.44;;;7.57
72236;BMP280;60146;52.498;13.462;2023-11-21T05:21:34;97887.22;;;7.57
72236;BMP280;60146;52.498;13.462;2023-11-21T05:24:01;97892.41;;;7.57
72236;BMP280;60146;52.498;13.462;2023-11-21T05:26:26;97880.91;;;7.58
72236;BMP280;60146;52.498;13.462;2023-11-21T05:28:52;97902.19;;;7.60
72236;BMP280;60146;52.498;13.462;2023-11-21T05:31:18;97888.28;;;7.56
72236;BMP280;60146;52.498;13.462;2023-11-21T05:33:43;97849.22;;;7.56
72236;BMP280;60146;52.498;13.462;2023-11-21T05:36:09;97838.22;;;7.62
72236;BMP280;60146;52.498;13.462;2023-11-21T05:38:36;97843.69;;;7.69
72236;BMP280;60146;52.498;13.462;2023-11-21T05:41:02;97941.25;;;7.60
72236;BMP280;60146;52.498;13.462;2023-11-21T05:43:28;97933.34;;;7.56
72236;BMP280;60146;52.498;13.462;2023-11-21T05:45:55;97943.63;;;7.65
72236;BMP280;60146;52.498;13.462;2023-11-21T05:48:21;97957.22;;;7.58
72236;BMP280;60146;52.498;13.462;2023-11-21T05:50:46;97959.59;;;7.63
72236;BMP280;60146;52.498;13.462;2023-11-21T05:53:13;98006.47;;;7.63
72236;BMP280;60146;52.498;13.462;2023-11-21T05:55:40;98000.28;;;7.56
72236;BMP280;60146;52.498;13.462;2023-11-21T05:58:06;97997.22;;;7.54
72236;BMP280;60146;52.498;13.462;2023-11-21T06:00:32;97997.22;;;7.54
72236;BMP280;60146;52.498;13.462;2023-11-21T06:02:58;98030.75;;;7.55
72236;BMP280;60146;52.498;13.462;2023-11-21T06:05:25;98005.63;;;7.59
72236;BMP280;60146;52.498;13.462;2023-11-21T06:07:52;98001.66;;;7.53
72236;BMP280;60146;52.498;13.462;2023-11-21T06:10:20;97982.81;;;7.56
72236;BMP280;60146;52.498;13.462;2023-11-21T06:12:45;97975.44;;;7.58
72236;BMP280;60146;52.498;13.462;2023-11-21T06:15:11;97997.91;;;7.63
72236;BMP280;60146;52.498;13.462;2023-11-21T06:17:39;97991.44;;;7.68
72236;BMP280;60146;52.498;13.462;2023-11-21T06:20:06;97981.66;;;7.66
72236;BMP280;60146;52.498;13.462;2023-11-21T06:22:37;97978.84;;;7.70
72236;BMP280;60146;52.498;13.462;2023-11-21T06:25:02;97979.47;;;7.67
72236;BMP280;60146;52.498;13.462;2023-11-21T06:27:31;97971.03;;;7.70
72236;BMP280;60146;52.498;13.462;2023-11-21T06:29:56;97966.78;;;7.66
72236;BMP280;60146;52.498;13.462;2023-11-21T06:32:21;97990.22;;;7.66
72236;BMP280;60146;52.498;13.462;2023-11-21T06:34:48;97984.25;;;7.66
72236;BMP280;60146;52.498;13.462;2023-11-21T06:37:14;98016.13;;;7.63
72236;BMP280;60146;52.498;13.462;2023-11-21T06:39:40;98063.28;;;7.69
72236;BMP280;60146;52.498;13.462;2023-11-21T06:42:05;98096.56;;;7.64
72236;BMP280;60146;52.498;13.462;2023-11-21T06:44:31;98091.22;;;7.61
72236;BMP280;60146;52.498;13.462;2023-11-21T06:46:56;98115.44;;;7.61
72236;BMP280;60146;52.498;13.462;2023-11-21T06:49:21;98118.88;;;7.53
72236;BMP280;60146;52.498;13.462;2023-11-21T06:51:48;98100.97;;;7.52
72236;BMP280;60146;52.498;13.462;2023-11-21T06:54:13;98087.94;;;7.52
72236;BMP280;60146;52.498;13.462;2023-11-21T06:56:39;98072.22;;;7.48
72236;BMP280;60146;52.498;13.462;2023-11-21T06:59:05;98144.47;;;7.51
72236;BMP280;60146;52.498;13.462;2023-11-21T07:01:30;98136.78;;;7.55
72236;BMP280;60146;52.498;13.462;2023-11-21T07:03:59;98139.28;;;7.51
72236;BMP280;60146;52.498;13.462;2023-11-21T07:06:24;98133.59;;;7.58
72236;BMP280;60146;52.498;13.462;2023-11-21T07:08:49;98132.44;;;7.47
72236;BMP280;60146;52.498;13.462;2023-11-21T07:11:15;98093.06;;;7.48
72236;BMP280;60146;52.498;13.462;2023-11-21T07:13:40;98088.78;;;7.44
72236;BMP280;60146;52.498;13.462;2023-11-21T07:16:05;98080.97;;;7.44
72236;BMP280;60146;52.498;13.462;2023-11-21T07:18:31;98066.75;;;7.42
72236;BMP280;60146;52.498;13.462;2023-11-21T07:20:56;98110.06;;;7.46
72236;BMP280;60146;52.498;13.462;2023-11-21T07:23:23;98129.19;;;7.50
72236;BMP280;60146;52.498;13.462;2023-11-21T07:25:49;98233.94;;;7.55
72236;BMP280;60146;52.498;13.462;2023-11-21T07:28:14;98196.63;;;7.43
72236;BMP280;60146;52.498;13.462;2023-11-21T07:30:40;98203.56;;;7.39
72236;BMP280;60146;52.498;13.462;2023-11-21T07:33:05;98200.94;;;7.39
72236;BMP280;60146;52.498;13.462;2023-11-21T07:35:32;98157.19;;;7.33
72236;BMP280;60146;52.498;13.462;2023-11-21T07:37:57;98147.03;;;7.40
72236;BMP280;60146;52.498;13.462;2023-11-21T07:40:23;98119.34;;;7.35
72236;BMP280;60146;52.498;13.462;2023-11-21T07:42:48;98131.75;;;7.38
72236;BMP280;60146;52.498;13.462;2023-11-21T07:45:15;98146.75;;;7.33
72236;BMP280;60146;52.498;13.462;2023-11-21T07:47:40;98165.31;;;7.31
72236;BMP280;60146;52.498;13.462;2023-11-21T07:50:06;98211.41;;;7.31
72236;BMP280;60146;52.498;13.462;2023-11-21T07:52:32;98320.94;;;7.18
72236;BMP280;60146;52.498;13.462;2023-11-21T07:54:58;98328.66;;;7.14
72236;BMP280;60146;52.498;13.462;2023-11-21T07:57:24;98308.72;;;7.18
72236;BMP280;60146;52.498;13.462;2023-11-21T07:59:49;98355.63;;;7.10
72236;BMP280;60146;52.498;13.462;2023-11-21T08:02:14;98353.47;;;7.12
72236;BMP280;60146;52.498;13.462;2023-11-21T08:04:41;98353.91;;;7.14
72236;BMP280;60146;52.498;13.462;2023-11-21T08:07:07;98356.97;;;7.07
72236;BMP280;60146;52.498;13.462;2023-11-21T08:09:32;98385.47;;;7.12
72236;BMP280;60146;52.498;13.462;2023-11-21T08:11:59;98433.53;;;7.23
72236;BMP280;60146;52.498;13.462;2023-11-21T08:14:25;98463.88;;;7.19
72236;BMP280;60146;52.498;13.462;2023-11-21T08:16:51;98502.75;;;7.16
72236;BMP280;60146;52.498;13.462;2023-11-21T08:19:17;98520.22;;;7.15
72236;BMP280;60146;52.498;13.462;2023-11-21T08:21:43;98539.69;;;7.09
72236;BMP280;60146;52.498;13.462;2023-11-21T08:24:09;98504.28;;;7.08
72236;BMP280;60146;52.498;13.462;2023-11-21T08:26:36;98469.06;;;7.11
72236;BMP280;60146;52.498;13.462;2023-11-21T08:29:02;98454.38;;;7.15
72236;BMP280;60146;52.498;13.462;2023-11-21T08:31:27;98466.16;;;7.21
72236;BMP280;60146;52.498;13.462;2023-11-21T08:33:52;98493.88;;;7.17
72236;BMP280;60146;52.498;13.462;2023-11-21T08:36:23;98549.03;;;7.27
72236;BMP280;60146;52.498;13.462;2023-11-21T08:38:50;98518.38;;;7.24
72236;BMP280;60146;52.498;13.462;2023-11-21T08:41:20;98513.03;;;7.21
72236;BMP280;60146;52.498;13.462;2023-11-21T08:43:47;98543.97;;;7.14
72236;BMP280;60146;52.498;13.462;2023-11-21T08:46:13;98547.03;;;7.16
72236;BMP280;60146;52.498;13.462;2023-11-21T08:48:38;98561.13;;;7.15
72236;BMP280;60146;52.498;13.462;2023-11-21T08:51:06;98561.13;;;7.31
72236;BMP280;60146;52.498;13.462;2023-11-21T08:53:32;98559.13;;;7.28
72236;BMP280;60146;52.498;13.462;2023-11-21T08:55:58;98553.00;;;7.24
72236;BMP280;60146;52.498;13.462;2023-11-21T08:58:23;98584.25;;;7.33
72236;BMP280;60146;52.498;13.462;2023-11-21T09:00:49;98576.59;;;7.28
72236;BMP280;60146;52.498;13.462;2023-11-21T09:03:14;98596.94;;;7.18
72236;BMP280;60146;52.498;13.462;2023-11-21T09:05:39;98574.13;;;7.15
72236;BMP280;60146;52.498;13.462;2023-11-21T09:08:05;98569.84;;;7.19
72236;BMP280;60146;52.498;13.462;2023-11-21T09:10:33;98603.53;;;7.23
72236;BMP280;60146;52.498;13.462;2023-11-21T09:13:01;98608.28;;;7.22
72236;BMP280;60146;52.498;13.462;2023-11-21T09:15:27;98633.53;;;7.04
72236;BMP280;60146;52.498;13.462;2023-11-21T09:17:52;98619.91;;;6.99
72236;BMP280;60146;52.498;13.462;2023-11-21T09:20:18;98616.06;;;7.05
72236;BMP280;60146;52.498;13.462;2023-11-21T09:22:48;98623.75;;;7.10
72236;BMP280;60146;52.498;13.462;2023-11-21T09:25:13;98538.72;;;7.05
72236;BMP280;60146;52.498;13.462;2023-11-21T09:27:39;98555.56;;;6.91
72236;BMP280;60146;52.498;13.462;2023-11-21T09:30:05;98533.81;;;6.87
72236;BMP280;60146;52.498;13.462;2023-11-21T09:32:33;98499.22;;;6.95
72236;BMP280;60146;52.498;13.462;2023-11-21T09:35:00;98543.81;;;7.10
72236;BMP280;60146;52.498;13.462;2023-11-21T09:37:27;98571.38;;;7.03
72236;BMP280;60146;52.498;13.462;2023-11-21T09:39:52;98617.16;;;7.04
72236;BMP280;60146;52.498;13.462;2023-11-21T09:42:30;98649.00;;;7.18
72236;BMP280;60146;52.498;13.462;2023-11-21T09:45:21;98721.97;;;7.34
72236;BMP280;60146;52.498;13.462;2023-11-21T09:47:49;98765.22;;;7.44
72236;BMP280;60146;52.498;13.462;2023-11-21T09:50:17;98791.97;;;7.66
72236;BMP280;60146;52.498;13.462;2023-11-21T09:55:36;98860.28;;;7.63
72236;BMP280;60146;52.498;13.462;2023-11-21T09:58:04;98849.41;;;7.61
72236;BMP280;60146;52.498;13.462;2023-11-21T10:00:33;98838.38;;;7.64
72236;BMP280;60146;52.498;13.462;2023-11-21T10:02:59;98853.81;;;7.52
72236;BMP280;60146;52.498;13.462;2023-11-21T10:05:25;98863.44;;;7.43
72236;BMP280;60146;52.498;13.462;2023-11-21T10:07:50;98858.59;;;7.28
72236;BMP280;60146;52.498;13.462;2023-11-21T10:10:18;98857.53;;;7.29
72236;BMP280;60146;52.498;13.462;2023-11-21T10:12:48;98834.28;;;7.03
72236;BMP280;60146;52.498;13.462;2023-11-21T10:15:14;98797.97;;;7.06
72236;BMP280;60146;52.498;13.462;2023-11-21T10:17:42;98784.66;;;7.08
72236;BMP280;60146;52.498;13.462;2023-11-21T10:20:13;98761.88;;;7.13
72236;BMP280;60146;52.498;13.462;2023-11-21T10:22:40;98796.63;;;7.09
72236;BMP280;60146;52.498;13.462;2023-11-21T10:25:07;98796.72;;;7.25
72236;BMP280;60146;52.498;13.462;2023-11-21T10:27:34;98809.88;;;7.21
72236;BMP280;60146;52.498;13.462;2023-11-21T10:30:03;98841.75;;;7.26
72236;BMP280;60146;52.498;13.462;2023-11-21T10:32:32;98800.31;;;7.46
72236;BMP280;60146;52.498;13.462;2023-11-21T10:35:01;98766.59;;;7.41
72236;BMP280;60146;52.498;13.462;2023-11-21T10:37:39;98757.09;;;7.45
72236;BMP280;60146;52.498;13.462;2023-11-21T10:40:11;98796.38;;;7.48
72236;BMP280;60146;52.498;13.462;2023-11-21T10:42:40;98806.16;;;7.51
72236;BMP280;60146;52.498;13.462;2023-11-21T10:45:07;98810.66;;;7.67
72236;BMP280;60146;52.498;13.462;2023-11-21T10:47:39;98883.03;;;7.70
72236;BMP280;60146;52.498;13.462;2023-11-21T10:50:05;98872.09;;;7.60
72236;BMP280;60146;52.498;13.462;2023-11-21T10:52:30;98909.50;;;7.56
72236;BMP280;60146;52.498;13.462;2023-11-21T10:54:56;98896.53;;;7.43
72236;BMP280;60146;52.498;13.462;2023-11-21T10:57:24;98891.75;;;7.36
72236;BMP280;60146;52.498;13.462;2023-11-21T10:59:53;98858.44;;;7.25
72236;BMP280;60146;52.498;13.462;2023-11-21T11:02:26;98838.88;;;7.36
72236;BMP280;60146;52.498;13.462;2023-11-21T11:04:53;98840.69;;;7.27
72236;BMP280;60146;52.498;13.462;2023-11-21T11:07:21;98813.59;;;7.36
72236;BMP280;60146;52.498;13.462;2023-11-21T11:09:50;98837.28;;;7.48
72236;BMP280;60146;52.498;13.462;2023-11-21T11:12:16;98818.97;;;7.40
72236;BMP280;60146;52.498;13.462;2023-11-21T11:14:42;98782.84;;;7.38
72236;BMP280;60146;52.498;13.462;2023-11-21T11:17:10;98791.28;;;7.52
72236;BMP280;60146;52.498;13.462;2023-11-21T11:19:36;98816.06;;;7.41
72236;BMP280;60146;52.498;13.462;2023-11-21T11:28:03;98784.94;;;7.28
72236;BMP280;60146;52.498;13.462;2023-11-21T11:31:04;98763.81;;;7.08
72236;BMP280;60146;52.498;13.462;2023-11-21T11:36:46;98726.47;;;7.04
72236;BMP280;60146;52.498;13.462;2023-11-21T11:39:33;98670.38;;;6.98
72236;BMP280;60146;52.498;13.462;2023-11-21T11:42:02;98600.88;;;6.82
72236;BMP280;60146;52.498;13.462;2023-11-21T11:52:41;98592.59;;;6.88
72236;BMP280;60146;52.498;13.462;2023-11-21T11:55:09;98665.94;;;6.99
72236;BMP280;60146;52.498;13.462;2023-11-21T11:57:40;98698.56;;;6.96
72236;BMP280;60146;52.498;13.462;2023-11-21T12:00:10;98669.63;;;6.98
72236;BMP280;60146;52.498;13.462;2023-11-21T12:02:46;98727.59;;;6.82
72236;BMP280;60146;52.498;13.462;2023-11-21T12:05:13;98779.03;;;6.84
72236;BMP280;60146;52.498;13.462;2023-11-21T12:07:47;98801.03;;;6.79
72236;BMP280;60146;52.498;13.462;2023-11-21T12:10:17;98809.34;;;6.81
72236;BMP280;60146;52.498;13.462;2023-11-21T12:12:47;98824.75;;;6.77
72236;BMP280;60146;52.498;13.462;2023-11-21T12:15:14;98831.91;;;6.93
72236;BMP280;60146;52.498;13.462;2023-11-21T12:17:43;98828.34;;;6.89
72236;BMP280;60146;52.498;13.462;2023-11-21T12:20:09;98821.69;;;6.75
72236;BMP280;60146;52.498;13.462;2023-11-21T12:22:42;98781.41;;;6.73
72236;BMP280;60146;52.498;13.462;2023-11-21T12:25:08;98791.59;;;6.82
72236;BMP280;60146;52.498;13.462;2023-11-21T12:27:33;98768.91;;;6.83
72236;BMP280;60146;52.498;13.462;2023-11-21T12:29:58;98794.81;;;6.88
72236;BMP280;60146;52.498;13.462;2023-11-21T12:32:24;98783.06;;;6.90
72236;BMP280;60146;52.498;13.462;2023-11-21T12:34:51;98706.06;;;6.98
72236;BMP280;60146;52.498;13.462;2023-11-21T12:37:16;98656.13;;;6.87
72236;BMP280;60146;52.498;13.462;2023-11-21T12:39:42;98634.06;;;6.85
72236;BMP280;60146;52.498;13.462;2023-11-21T12:42:07;98640.66;;;6.82
72236;BMP280;60146;52.498;13.462;2023-11-21T12:44:34;98653.69;;;6.82
72236;BMP280;60146;52.498;13.462;2023-11-21T12:46:59;98665.25;;;6.77
72236;BMP280;60146;52.498;13.462;2023-11-21T12:49:24;98636.25;;;6.91
72236;BMP280;60146;52.498;13.462;2023-11-21T12:51:50;98655.44;;;7.03
72236;BMP280;60146;52.498;13.462;2023-11-21T12:54:16;98723.75;;;7.09
72236;BMP280;60146;52.498;13.462;2023-11-21T12:56:45;98762.28;;;7.07
72236;BMP280;60146;52.498;13.462;2023-11-21T12:59:12;98750.25;;;7.11
72236;BMP280;60146;52.498;13.462;2023-11-21T13:01:42;98694.03;;;7.10
72236;BMP280;60146;52.498;13.462;2023-11-21T13:04:07;98690.75;;;6.96
72236;BMP280;60146;52.498;13.462;2023-11-21T13:06:36;98652.34;;;7.02
72236;BMP280;60146;52.498;13.462;2023-11-21T13:09:07;98690.38;;;7.11
72236;BMP280;60146;52.498;13.462;2023-11-21T13:11:36;98772.59;;;7.12
72236;BMP280;60146;52.498;13.462;2023-11-21T13:14:02;98710.72;;;7.09
72236;BMP280;60146;52.498;13.462;2023-11-21T13:16:28;98699.81;;;7.07
72236;BMP280;60146;52.498;13.462;2023-11-21T13:18:55;98715.91;;;7.01
72236;BMP280;60146;52.498;13.462;2023-11-21T13:21:21;98685.22;;;6.89
72236;BMP280;60146;52.498;13.462;2023-11-21T13:23:47;98677.22;;;6.86
72236;BMP280;60146;52.498;13.462;2023-11-21T13:26:15;98653.06;;;6.85
72236;BMP280;60146;52.498;13.462;2023-11-21T13:28:40;98698.56;;;6.96
72236;BMP280;60146;52.498;13.462;2023-11-21T13:31:11;98675.41;;;6.86
72236;BMP280;60146;52.498;13.462;2023-11-21T13:33:49;98815.75;;;6.83
72236;BMP280;60146;52.498;13.462;2023-11-21T13:36:24;98825.09;;;6.84
72236;BMP280;60146;52.498;13.462;2023-11-21T13:38:51;98837.75;;;6.99
72236;BMP280;60146;52.498;13.462;2023-11-21T13:41:18;98854.09;;;6.91
72236;BMP280;60146;52.498;13.462;2023-11-21T13:43:44;98938.94;;;6.79
72236;BMP280;60146;52.498;13.462;2023-11-21T13:46:14;98919.19;;;6.78
72236;BMP280;60146;52.498;13.462;2023-11-21T13:48:42;98964.63;;;6.59
72236;BMP280;60146;52.498;13.462;2023-11-21T13:51:10;98919.25;;;6.51
72236;BMP280;60146;52.498;13.462;2023-11-21T13:53:46;98985.00;;;6.43
72236;BMP280;60146;52.498;13.462;2023-11-21T13:56:19;98998.63;;;6.22
72236;BMP280;60146;52.498;13.462;2023-11-21T13:58:53;98993.84;;;6.16
72236;BMP280;60146;52.498;13.462;2023-11-21T14:01:23;98970.34;;;6.21
72236;BMP280;60146;52.498;13.462;2023-11-21T14:04:04;98965.22;;;6.03
72236;BMP280;60146;52.498;13.462;2023-11-21T14:06:50;98943.94;;;6.01
72236;BMP280;60146;52.498;13.462;2023-11-21T14:09:21;98911.41;;;6.03
72236;BMP280;60146;52.498;13.462;2023-11-21T14:11:55;98948.28;;;6.05
72236;BMP280;60146;52.498;13.462;2023-11-21T14:14:25;98893.31;;;5.98
72236;BMP280;60146;52.498;13.462;2023-11-21T14:16:51;98860.50;;;5.89
72236;BMP280;60146;52.498;13.462;2023-11-21T14:19:18;98862.31;;;5.89
72236;BMP280;60146;52.498;13.462;2023-11-21T14:21:44;98863.09;;;5.89
72236;BMP280;60146;52.498;13.462;2023-11-21T14:24:10;98923.34;;;5.91
72236;BMP280;60146;52.498;13.462;2023-11-21T14:26:41;98924.28;;;5.82